Time;durP1;ratioP1;P1;durP2;ratioP2;P2;SDS_P1;SDS_P2;PMS_P1;PMS_P2;Temp;Humidity;BMP_temperature;BMP_pressure;BME280_temperature;BME280_humidity;BME280_pressure;Samples;Min_cycle;Max_cycle;Signal;HPM_P1;HPM_P2
2022/10/14 00:00:21;;;;;;;107.03;24.08;;;;;;;;;;5047974;28;20071;-55
2022/10/14 00:02:48;;;;;;;76.47;21.77;;;;;;;;;;5043776;28;20041;-55
2022/10/14 00:05:15;;;;;;;60.78;21.55;;;;;;;;;;5044291;28;20120;-58
2022/10/14 00:07:43;;;;;;;98.25;23.88;;;;;;;;;;5042891;28;20815;-54
2022/10/14 00:10:09;;;;;;;90.25;22.08;;;;;;;;;;5042594;28;20068;-56
2022/10/14 00:12:36;;;;;;;66.60;20.75;;;;;;;;;;5049749;28;20098;-55
2022/10/14 00:15:03;;;;;;;69.88;21.45;;;;;;;;;;5044728;28;20037;-54
2022/10/14 00:17:29;;;;;;;77.72;22.83;;;;;;;;;;5044023;28;20041;-54
2022/10/14 00:19:56;;;;;;;65.13;20.50;;;;;;;;;;5044035;28;20101;-53
2022/10/14 00:22:22;;;;;;;85.60;24.60;;;;;;;;;;5044403;28;20121;-54
2022/10/14 00:24:49;;;;;;;82.63;23.50;;;;;;;;;;5046795;28;20041;-51
2022/10/14 00:27:15;;;;;;;70.30;21.17;;;;;;;;;;5045790;28;20029;-51
2022/10/14 00:29:42;;;;;;;104.43;24.05;;;;;;;;;;5043606;28;20044;-52
2022/10/14 00:32:08;;;;;;;93.32;24.13;;;;;;;;;;5042766;28;20056;-49
2022/10/14 00:34:35;;;;;;;79.03;21.92;;;;;;;;;;5043063;28;20489;-54
2022/10/14 00:37:02;;;;;;;86.28;22.88;;;;;;;;;;5045636;28;20076;-55
2022/10/14 00:39:29;;;;;;;72.60;23.08;;;;;;;;;;5047095;28;20037;-55
2022/10/14 00:41:56;;;;;;;91.97;23.20;;;;;;;;;;5042912;28;20408;-55
2022/10/14 00:44:22;;;;;;;89.53;23.65;;;;;;;;;;5036666;28;20119;-56
2022/10/14 00:46:49;;;;;;;85.60;23.67;;;;;;;;;;5044523;28;20029;-53
2022/10/14 00:49:18;;;;;;;80.95;23.20;;;;;;;;;;5042765;28;20132;-55
2022/10/14 00:51:53;;;;;;;113.60;24.60;;;;;;;;;;5046476;28;20049;-54
2022/10/14 00:54:21;;;;;;;127.22;26.80;;;;;;;;;;5044244;28;20140;-55
2022/10/14 00:56:48;;;;;;;89.05;26.25;;;;;;;;;;5044884;28;20408;-56
2022/10/14 00:59:15;;;;;;;78.57;22.90;;;;;;;;;;5042010;28;20054;-54
2022/10/14 01:01:41;;;;;;;86.90;23.52;;;;;;;;;;5046829;28;20055;-54
2022/10/14 01:04:08;;;;;;;92.03;23.67;;;;;;;;;;5046931;28;20405;-55
2022/10/14 01:06:37;;;;;;;91.05;24.88;;;;;;;;;;5052163;28;20068;-51
2022/10/14 01:09:15;;;;;;;93.32;26.48;;;;;;;;;;5045821;28;20037;-54
2022/10/14 01:11:44;;;;;;;118.53;26.48;;;;;;;;;;5045894;28;20041;-51
2022/10/14 01:14:20;;;;;;;86.43;23.80;;;;;;;;;;5046713;28;20409;-56
2022/10/14 01:16:53;;;;;;;86.50;23.65;;;;;;;;;;5050345;28;20074;-53
2022/10/14 01:19:30;;;;;;;92.45;24.27;;;;;;;;;;5032433;28;20389;-54
2022/10/14 01:22:23;;;;;;;108.88;25.40;;;;;;;;;;5031766;28;20053;-52
2022/10/14 01:24:53;;;;;;;109.22;25.13;;;;;;;;;;5030012;28;20571;-55
2022/10/14 01:27:33;;;;;;;83.72;24.23;;;;;;;;;;5063866;28;20052;-56
2022/10/14 01:30:06;;;;;;;72.40;22.90;;;;;;;;;;5061633;28;20094;-57
2022/10/14 01:32:33;;;;;;;80.65;24.75;;;;;;;;;;5045816;28;20044;-53
2022/10/14 01:35:02;;;;;;;80.13;25.02;;;;;;;;;;5041983;28;20041;-53
2022/10/14 01:37:30;;;;;;;78.55;23.40;;;;;;;;;;5045488;28;20414;-55
2022/10/14 01:39:59;;;;;;;98.22;26.50;;;;;;;;;;5031537;28;20076;-55
2022/10/14 01:42:30;;;;;;;80.18;24.67;;;;;;;;;;5049239;28;20048;-54
2022/10/14 01:45:16;;;;;;;83.30;24.42;;;;;;;;;;5045766;28;20037;-54
2022/10/14 01:47:45;;;;;;;108.35;26.80;;;;;;;;;;5046447;28;20115;-55
2022/10/14 01:50:14;;;;;;;77.20;24.05;;;;;;;;;;5047645;28;20032;-55
2022/10/14 01:52:48;;;;;;;109.63;25.75;;;;;;;;;;5045064;28;20378;-55
2022/10/14 01:55:18;;;;;;;97.97;23.65;;;;;;;;;;5045554;28;20060;-56
2022/10/14 01:57:46;;;;;;;116.78;25.85;;;;;;;;;;5050032;28;20139;-56
2022/10/14 02:00:13;;;;;;;106.10;26.90;;;;;;;;;;5049667;28;20131;-54
2022/10/14 02:02:40;;;;;;;90.15;26.02;;;;;;;;;;5047287;28;20071;-56
2022/10/14 02:05:15;;;;;;;97.60;25.95;;;;;;;;;;5045149;28;20057;-55
2022/10/14 02:07:44;;;;;;;155.10;30.38;;;;;;;;;;5045824;28;20041;-55
2022/10/14 02:10:28;;;;;;;97.32;26.17;;;;;;;;;;5046231;28;20041;-54
2022/10/14 02:12:55;;;;;;;102.32;26.20;;;;;;;;;;5046342;28;20467;-54
2022/10/14 02:15:30;;;;;;;76.43;25.10;;;;;;;;;;5047372;28;20417;-56
2022/10/14 02:18:03;;;;;;;103.32;28.40;;;;;;;;;;5044485;28;20645;-55
2022/10/14 02:20:44;;;;;;;96.38;25.48;;;;;;;;;;5028592;28;20124;-56
2022/10/14 02:23:14;;;;;;;106.13;26.70;;;;;;;;;;5046615;28;20136;-63
2022/10/14 02:25:43;;;;;;;122.15;28.13;;;;;;;;;;5045887;28;20505;-56
2022/10/14 02:28:11;;;;;;;93.57;26.77;;;;;;;;;;5045914;28;20048;-56
2022/10/14 02:30:40;;;;;;;144.13;30.45;;;;;;;;;;5048916;28;20393;-56
2022/10/14 02:33:07;;;;;;;81.72;26.83;;;;;;;;;;5044670;28;20379;-56
2022/10/14 02:35:35;;;;;;;102.63;28.27;;;;;;;;;;5044318;28;20064;-57
2022/10/14 02:38:04;;;;;;;104.20;28.65;;;;;;;;;;5045159;28;20048;-54
2022/10/14 02:40:42;;;;;;;99.93;29.65;;;;;;;;;;5048544;28;20133;-56
2022/10/14 02:43:09;;;;;;;110.85;29.63;;;;;;;;;;5046916;28;20052;-56
2022/10/14 02:45:37;;;;;;;93.75;30.27;;;;;;;;;;5050980;28;20463;-56
2022/10/14 02:48:04;;;;;;;96.85;30.65;;;;;;;;;;5044978;28;20060;-53
2022/10/14 02:50:30;;;;;;;109.35;31.88;;;;;;;;;;5044065;28;20052;-56
2022/10/14 02:52:57;;;;;;;91.85;28.88;;;;;;;;;;5045863;28;20037;-57
2022/10/14 02:55:23;;;;;;;85.53;30.05;;;;;;;;;;5045478;28;20033;-57
2022/10/14 02:57:50;;;;;;;119.90;30.67;;;;;;;;;;5049587;28;20033;-57
2022/10/14 03:00:17;;;;;;;99.25;28.75;;;;;;;;;;5045619;28;20097;-58
2022/10/14 03:02:44;;;;;;;93.28;27.75;;;;;;;;;;5057145;28;20056;-56
2022/10/14 03:05:11;;;;;;;101.32;27.95;;;;;;;;;;5045115;28;20060;-56
2022/10/14 03:07:38;;;;;;;91.18;28.58;;;;;;;;;;5044046;28;20060;-56
2022/10/14 03:10:09;;;;;;;100.72;28.30;;;;;;;;;;5044819;28;20045;-57
2022/10/14 03:12:35;;;;;;;87.57;26.25;;;;;;;;;;5048399;28;20102;-57
2022/10/14 03:15:02;;;;;;;69.72;26.92;;;;;;;;;;5048283;28;20048;-57
2022/10/14 03:17:30;;;;;;;84.53;24.02;;;;;;;;;;5043541;28;20045;-56
2022/10/14 03:20:01;;;;;;;96.20;25.42;;;;;;;;;;5031075;28;20037;-56
2022/10/14 03:22:28;;;;;;;88.38;26.63;;;;;;;;;;5043990;28;20072;-57
2022/10/14 03:24:55;;;;;;;84.68;25.38;;;;;;;;;;5046593;28;20051;-57
2022/10/14 03:27:31;;;;;;;91.03;24.98;;;;;;;;;;5062043;28;20593;-57
2022/10/14 03:30:02;;;;;;;111.00;25.65;;;;;;;;;;5042614;28;20048;-54
2022/10/14 03:32:30;;;;;;;88.00;24.08;;;;;;;;;;5043654;28;20087;-55
2022/10/14 03:35:17;;;;;;;64.28;22.75;;;;;;;;;;5044590;28;20052;-56
2022/10/14 03:37:46;;;;;;;90.82;25.42;;;;;;;;;;5039152;28;20041;-55
2022/10/14 03:40:16;;;;;;;76.15;23.60;;;;;;;;;;5043595;28;20394;-53
2022/10/14 03:42:43;;;;;;;95.72;25.33;;;;;;;;;;5044621;28;20064;-56
2022/10/14 03:45:09;;;;;;;90.65;25.02;;;;;;;;;;5042878;28;20045;-55
2022/10/14 03:47:38;;;;;;;92.57;25.33;;;;;;;;;;5038425;28;20493;-55
2022/10/14 03:50:05;;;;;;;69.78;23.10;;;;;;;;;;5043864;28;20040;-55
2022/10/14 03:52:40;;;;;;;91.80;24.13;;;;;;;;;;5043659;28;20116;-55
2022/10/14 03:55:23;;;;;;;;;;;;;;;;;;5043543;28;20470;-55
2022/10/14 03:57:50;;;;;;;108.43;25.27;;;;;;;;;;5047412;28;19963;-57
2022/10/14 04:00:17;;;;;;;74.22;23.38;;;;;;;;;;5048429;28;20067;-56
2022/10/14 04:02:51;;;;;;;71.20;24.67;;;;;;;;;;5042981;28;20072;-55
2022/10/14 04:05:35;;;;;;;;;;;;;;;;;;5043226;28;20048;-54
2022/10/14 04:08:08;;;;;;;83.95;23.08;;;;;;;;;;5042793;28;20058;-56
2022/10/14 04:10:36;;;;;;;76.10;21.73;;;;;;;;;;5042760;28;20124;-55
2022/10/14 04:13:03;;;;;;;75.78;22.33;;;;;;;;;;5045013;28;20072;-57
2022/10/14 04:15:34;;;;;;;96.38;23.75;;;;;;;;;;5046482;28;20033;-55
2022/10/14 04:18:21;;;;;;;76.05;22.13;;;;;;;;;;5038666;28;20501;-55
2022/10/14 04:20:50;;;;;;;93.97;24.95;;;;;;;;;;5042801;28;20045;-56
2022/10/14 04:23:20;;;;;;;82.68;22.70;;;;;;;;;;5027535;28;20132;-54
2022/10/14 04:25:51;;;;;;;69.22;23.23;;;;;;;;;;5042583;28;20091;-56
2022/10/14 04:28:18;;;;;;;77.85;23.58;;;;;;;;;;5042617;28;20038;-56
2022/10/14 04:30:51;;;;;;;77.57;23.35;;;;;;;;;;5046712;28;20037;-56
2022/10/14 04:33:23;;;;;;;75.43;23.17;;;;;;;;;;5032040;28;20471;-57
2022/10/14 04:35:55;;;;;;;121.13;24.33;;;;;;;;;;5042471;28;20033;-56
2022/10/14 04:38:26;;;;;;;68.40;22.83;;;;;;;;;;5038559;28;20037;-56
2022/10/14 04:40:58;;;;;;;127.22;25.73;;;;;;;;;;5042437;28;20068;-56
2022/10/14 04:43:25;;;;;;;108.00;24.75;;;;;;;;;;5030561;28;20091;-56
2022/10/14 04:45:56;;;;;;;68.07;22.42;;;;;;;;;;5046200;28;20041;-55
2022/10/14 04:48:25;;;;;;;134.80;26.52;;;;;;;;;;5044768;28;20079;-55
2022/10/14 04:50:52;;;;;;;78.22;24.55;;;;;;;;;;5042935;28;20395;-54
2022/10/14 04:53:41;;;;;;;113.78;25.88;;;;;;;;;;5037919;28;20114;-57
2022/10/14 04:56:40;;;;;;;180.30;28.27;;;;;;;;;;5032576;28;20045;-56
2022/10/14 04:59:07;;;;;;;156.25;27.92;;;;;;;;;;5038299;28;20045;-56
2022/10/14 05:01:51;;;;;;;198.32;29.27;;;;;;;;;;5042497;28;20037;-55
2022/10/14 05:04:19;;;;;;;100.70;22.77;;;;;;;;;;5027036;28;20045;-55
2022/10/14 05:06:48;;;;;;;104.22;24.55;;;;;;;;;;5047622;28;20519;-56
2022/10/14 05:09:16;;;;;;;108.80;26.60;;;;;;;;;;5046571;28;20060;-56
2022/10/14 05:11:43;;;;;;;131.98;26.92;;;;;;;;;;5042399;28;20029;-55
2022/10/14 05:14:13;;;;;;;88.50;24.83;;;;;;;;;;5037945;28;20052;-56
2022/10/14 05:16:42;;;;;;;102.78;26.88;;;;;;;;;;5046416;28;20409;-56
2022/10/14 05:19:09;;;;;;;82.50;25.88;;;;;;;;;;5044841;28;20062;-56
2022/10/14 05:21:44;;;;;;;79.63;26.45;;;;;;;;;;5042980;28;20055;-54
2022/10/14 05:24:14;;;;;;;107.97;26.50;;;;;;;;;;5043902;28;20125;-56
2022/10/14 05:26:42;;;;;;;74.80;24.60;;;;;;;;;;5042977;28;20485;-55
2022/10/14 05:29:12;;;;;;;87.32;25.33;;;;;;;;;;5042015;28;20059;-55
2022/10/14 05:31:39;;;;;;;141.40;28.33;;;;;;;;;;5042011;28;20099;-55
2022/10/14 05:34:26;;;;;;;71.80;23.13;;;;;;;;;;5040938;28;20115;-57
2022/10/14 05:36:55;;;;;;;184.55;30.90;;;;;;;;;;5045723;28;20057;-55
2022/10/14 05:39:21;;;;;;;85.72;23.48;;;;;;;;;;5043710;28;20051;-57
2022/10/14 05:41:48;;;;;;;70.30;24.35;;;;;;;;;;5042452;28;20045;-54
2022/10/14 05:44:21;;;;;;;64.50;22.95;;;;;;;;;;5039883;28;20040;-54
2022/10/14 05:46:48;;;;;;;125.40;25.52;;;;;;;;;;5045722;28;20041;-54
2022/10/14 05:49:15;;;;;;;109.30;25.50;;;;;;;;;;5050291;28;20074;-56
2022/10/14 05:51:42;;;;;;;127.00;26.55;;;;;;;;;;5050630;28;20463;-56
2022/10/14 05:54:15;;;;;;;84.20;23.10;;;;;;;;;;5049867;28;20171;-56
2022/10/14 05:56:43;;;;;;;106.70;24.77;;;;;;;;;;5040723;28;20493;-55
2022/10/14 05:59:10;;;;;;;76.38;24.83;;;;;;;;;;5045403;28;20049;-55
2022/10/14 06:01:37;;;;;;;102.68;25.38;;;;;;;;;;5045688;28;20045;-56
2022/10/14 06:04:03;;;;;;;123.30;28.67;;;;;;;;;;5047581;28;20500;-55
2022/10/14 06:06:31;;;;;;;71.38;23.13;;;;;;;;;;5048112;28;20041;-54
2022/10/14 06:08:57;;;;;;;133.25;25.17;;;;;;;;;;5047458;28;20116;-56
2022/10/14 06:11:24;;;;;;;105.63;24.10;;;;;;;;;;5030633;28;20041;-53
2022/10/14 06:13:51;;;;;;;65.43;22.23;;;;;;;;;;5046067;28;20059;-52
2022/10/14 06:16:18;;;;;;;103.20;24.73;;;;;;;;;;5025222;28;20038;-54
2022/10/14 06:18:44;;;;;;;89.68;22.95;;;;;;;;;;5049186;28;20587;-53
2022/10/14 06:21:11;;;;;;;95.85;23.70;;;;;;;;;;5046544;28;20044;-55
2022/10/14 06:23:38;;;;;;;91.50;21.92;;;;;;;;;;5046324;28;20120;-55
2022/10/14 06:26:05;;;;;;;182.48;28.73;;;;;;;;;;5044387;28;20044;-54
2022/10/14 06:28:31;;;;;;;64.30;21.48;;;;;;;;;;5049976;28;20037;-54
2022/10/14 06:30:58;;;;;;;99.72;23.27;;;;;;;;;;5048039;28;20073;-54
2022/10/14 06:33:26;;;;;;;150.60;25.88;;;;;;;;;;5047478;28;20068;-54
2022/10/14 06:35:53;;;;;;;108.13;23.88;;;;;;;;;;5047094;28;20032;-56
2022/10/14 06:38:19;;;;;;;86.63;22.35;;;;;;;;;;5045409;28;20465;-53
2022/10/14 06:40:48;;;;;;;116.03;24.35;;;;;;;;;;5044991;28;20041;-56
2022/10/14 06:43:15;;;;;;;80.68;22.85;;;;;;;;;;5046457;28;20083;-55
2022/10/14 06:45:41;;;;;;;111.00;23.88;;;;;;;;;;5048900;28;20048;-53
2022/10/14 06:48:08;;;;;;;64.15;21.40;;;;;;;;;;5046095;28;20125;-55
2022/10/14 06:50:35;;;;;;;76.30;23.50;;;;;;;;;;5046059;28;20507;-54
2022/10/14 06:53:01;;;;;;;99.53;23.85;;;;;;;;;;5044510;28;20044;-54
2022/10/14 06:55:28;;;;;;;108.25;23.02;;;;;;;;;;5044991;28;20048;-54
2022/10/14 06:57:55;;;;;;;73.70;21.67;;;;;;;;;;5049387;28;20575;-55
2022/10/14 07:00:21;;;;;;;87.18;20.85;;;;;;;;;;5049815;28;20044;-55
2022/10/14 07:02:48;;;;;;;71.45;21.30;;;;;;;;;;5044055;28;20041;-54
2022/10/14 07:05:14;;;;;;;69.70;21.88;;;;;;;;;;5045431;28;20040;-55
2022/10/14 07:07:41;;;;;;;71.88;22.35;;;;;;;;;;5049384;28;20052;-53
2022/10/14 07:10:08;;;;;;;76.00;20.40;;;;;;;;;;5045296;28;20041;-57
2022/10/14 07:12:34;;;;;;;76.43;22.60;;;;;;;;;;5047202;28;20587;-52
2022/10/14 07:15:01;;;;;;;88.68;22.33;;;;;;;;;;5045304;28;20132;-55
2022/10/14 07:17:27;;;;;;;47.65;18.80;;;;;;;;;;5044488;28;20044;-52
2022/10/14 07:19:54;;;;;;;79.50;20.58;;;;;;;;;;5043356;28;20053;-52
2022/10/14 07:22:20;;;;;;;60.92;20.50;;;;;;;;;;5045368;28;20501;-52
2022/10/14 07:24:47;;;;;;;74.00;22.92;;;;;;;;;;5045381;28;20045;-54
2022/10/14 07:27:15;;;;;;;195.77;27.67;;;;;;;;;;5043742;28;20457;-55
2022/10/14 07:29:41;;;;;;;69.78;20.02;;;;;;;;;;5044821;28;20049;-55
2022/10/14 07:32:08;;;;;;;61.53;21.00;;;;;;;;;;5045026;28;20041;-53
2022/10/14 07:34:34;;;;;;;184.20;27.67;;;;;;;;;;5044952;28;20080;-56
2022/10/14 07:37:01;;;;;;;80.93;21.63;;;;;;;;;;5046700;28;20030;-54
2022/10/14 07:39:27;;;;;;;53.97;21.73;;;;;;;;;;5046672;28;20048;-55
2022/10/14 07:41:54;;;;;;;92.03;23.10;;;;;;;;;;5039054;28;20041;-55
2022/10/14 07:44:21;;;;;;;120.05;33.53;;;;;;;;;;5044655;28;20037;-54
2022/10/14 07:46:52;;;;;;;115.97;34.03;;;;;;;;;;5049088;28;20497;-53
2022/10/14 07:49:20;;;;;;;82.32;24.02;;;;;;;;;;5045813;28;20040;-54
2022/10/14 07:51:47;;;;;;;70.85;21.13;;;;;;;;;;5045348;28;20120;-54
2022/10/14 07:54:15;;;;;;;67.20;21.08;;;;;;;;;;5038259;28;20049;-55
2022/10/14 07:56:43;;;;;;;92.07;22.27;;;;;;;;;;5044929;28;20338;-56
2022/10/14 07:59:10;;;;;;;53.65;20.55;;;;;;;;;;5043672;28;20041;-55
2022/10/14 08:01:36;;;;;;;70.15;21.50;;;;;;;;;;5044562;28;20033;-55
2022/10/14 08:04:03;;;;;;;97.13;21.65;;;;;;;;;;5047107;28;20114;-56
2022/10/14 08:06:30;;;;;;;53.28;19.70;;;;;;;;;;5047002;28;20045;-56
2022/10/14 08:08:56;;;;;;;55.95;19.08;;;;;;;;;;5044121;28;20083;-56
2022/10/14 08:11:26;;;;;;;75.80;20.98;;;;;;;;;;5043904;28;20041;-55
2022/10/14 08:13:53;;;;;;;101.55;22.50;;;;;;;;;;5044415;28;20043;-56
2022/10/14 08:16:22;;;;;;;57.85;18.65;;;;;;;;;;5044142;28;20033;-56
2022/10/14 08:18:48;;;;;;;115.85;22.83;;;;;;;;;;5044527;28;20088;-55
2022/10/14 08:21:15;;;;;;;104.15;18.65;;;;;;;;;;5044283;28;20037;-56
2022/10/14 08:23:42;;;;;;;67.45;19.38;;;;;;;;;;5043753;28;20041;-56
2022/10/14 08:26:29;;;;;;;64.15;19.15;;;;;;;;;;5047978;28;20037;-56
2022/10/14 08:28:56;;;;;;;99.05;20.20;;;;;;;;;;5044559;28;20036;-56
2022/10/14 08:31:23;;;;;;;99.80;21.13;;;;;;;;;;5038213;28;20057;-55
2022/10/14 08:33:50;;;;;;;67.30;19.70;;;;;;;;;;5048949;28;20075;-55
2022/10/14 08:36:17;;;;;;;118.63;21.85;;;;;;;;;;5043488;28;20033;-56
2022/10/14 08:38:43;;;;;;;114.65;21.23;;;;;;;;;;5043762;28;20041;-56
2022/10/14 08:41:13;;;;;;;89.45;20.45;;;;;;;;;;5042553;28;20045;-56
2022/10/14 08:43:49;;;;;;;89.45;19.42;;;;;;;;;;5043939;28;20033;-56
2022/10/14 08:46:22;;;;;;;63.10;16.88;;;;;;;;;;5043771;28;20448;-55
2022/10/14 08:48:50;;;;;;;58.38;16.73;;;;;;;;;;5047827;28;20055;-56
2022/10/14 08:51:18;;;;;;;82.35;18.17;;;;;;;;;;5044388;28;20635;-56
2022/10/14 08:53:49;;;;;;;71.10;17.48;;;;;;;;;;5042348;28;20040;-56
2022/10/14 08:56:16;;;;;;;82.80;18.35;;;;;;;;;;5042662;28;20068;-56
2022/10/14 08:58:45;;;;;;;174.02;23.08;;;;;;;;;;5042763;28;20412;-56
2022/10/14 09:01:21;;;;;;;58.05;15.63;;;;;;;;;;5045125;28;20088;-56
2022/10/14 09:03:50;;;;;;;68.28;16.80;;;;;;;;;;5047001;28;20095;-54
2022/10/14 09:06:24;;;;;;;63.60;16.70;;;;;;;;;;5037960;28;20068;-56
2022/10/14 09:08:53;;;;;;;65.35;16.50;;;;;;;;;;5043537;28;20036;-56
2022/10/14 09:11:20;;;;;;;81.82;17.23;;;;;;;;;;5043190;28;20033;-56
2022/10/14 09:13:58;;;;;;;50.60;15.00;;;;;;;;;;5043804;28;20497;-55
2022/10/14 09:16:27;;;;;;;68.00;16.42;;;;;;;;;;5044022;28;20047;-56
2022/10/14 09:18:55;;;;;;;61.38;16.70;;;;;;;;;;5049561;28;20128;-57
2022/10/14 09:21:24;;;;;;;43.88;13.93;;;;;;;;;;5048840;28;20041;-56
2022/10/14 09:24:12;;;;;;;78.80;16.92;;;;;;;;;;5047510;28;20041;-56
2022/10/14 09:26:40;;;;;;;68.57;16.00;;;;;;;;;;5047256;28;20044;-55
2022/10/14 09:29:26;;;;;;;66.18;14.77;;;;;;;;;;5047260;28;20489;-56
2022/10/14 09:32:04;;;;;;;55.58;14.20;;;;;;;;;;5047539;28;20045;-56
2022/10/14 09:34:50;;;;;;;77.47;16.38;;;;;;;;;;5045986;28;20033;-56
2022/10/14 09:37:23;;;;;;;55.47;13.85;;;;;;;;;;5048269;28;20644;-56
2022/10/14 09:39:52;;;;;;;72.65;14.35;;;;;;;;;;5051839;28;20048;-55
2022/10/14 09:42:37;;;;;;;44.63;13.20;;;;;;;;;;5047816;28;20045;-57
2022/10/14 09:45:04;;;;;;;61.25;13.95;;;;;;;;;;5045309;28;20451;-55
2022/10/14 09:47:31;;;;;;;58.65;14.13;;;;;;;;;;5041150;28;20123;-56
2022/10/14 09:49:59;;;;;;;35.83;12.57;;;;;;;;;;5046765;28;20060;-56
2022/10/14 09:52:32;;;;;;;147.60;18.23;;;;;;;;;;5045759;28;20398;-56
2022/10/14 09:55:00;;;;;;;255.43;27.88;;;;;;;;;;5048621;28;20049;-55
2022/10/14 09:57:27;;;;;;;104.15;16.55;;;;;;;;;;5048298;28;20171;-56
2022/10/14 10:00:01;;;;;;;62.38;12.35;;;;;;;;;;5045335;28;20723;-56
2022/10/14 10:02:41;;;;;;;90.13;14.30;;;;;;;;;;5045939;28;20045;-56
2022/10/14 10:05:12;;;;;;;37.90;10.43;;;;;;;;;;5045523;28;20493;-56
2022/10/14 10:07:38;;;;;;;65.30;13.02;;;;;;;;;;5046571;28;20049;-56
2022/10/14 10:10:18;;;;;;;79.07;13.55;;;;;;;;;;5048443;28;20044;-56
2022/10/14 10:12:46;;;;;;;362.90;29.80;;;;;;;;;;5050730;28;20094;-57
2022/10/14 10:15:17;;;;;;;119.30;15.23;;;;;;;;;;5046677;28;20501;-55
2022/10/14 10:17:44;;;;;;;121.10;14.60;;;;;;;;;;5046063;28;20038;-58
2022/10/14 10:20:27;;;;;;;64.88;12.82;;;;;;;;;;5046166;28;20049;-56
2022/10/14 10:22:55;;;;;;;65.70;12.35;;;;;;;;;;5046822;28;20559;-56
2022/10/14 10:25:26;;;;;;;46.15;10.68;;;;;;;;;;5046842;28;20033;-56
2022/10/14 10:27:53;;;;;;;56.40;11.07;;;;;;;;;;5047254;28;20412;-56
2022/10/14 10:30:20;;;;;;;67.45;11.85;;;;;;;;;;5047486;28;20402;-56
2022/10/14 10:32:59;;;;;;;43.28;9.60;;;;;;;;;;5046269;28;20520;-55
2022/10/14 10:35:46;;;;;;;77.30;11.88;;;;;;;;;;5045048;28;20045;-56
2022/10/14 10:38:40;;;;;;;537.33;47.83;;;;;;;;;;5047181;28;20083;-56
2022/10/14 10:41:07;;;;;;;;;;;;;;;;;;5046951;28;20045;-56
2022/10/14 10:43:41;;;;;;;83.53;13.20;;;;;;;;;;5046177;28;19921;-56
2022/10/14 10:46:08;;;;;;;112.03;14.10;;;;;;;;;;5048004;28;20045;-56
2022/10/14 10:48:40;;;;;;;85.47;14.02;;;;;;;;;;5048248;28;20049;-56
2022/10/14 10:51:15;;;;;;;79.93;12.68;;;;;;;;;;5046826;28;20045;-55
2022/10/14 10:53:50;;;;;;;56.60;10.80;;;;;;;;;;5046012;28;20572;-56
2022/10/14 10:56:19;;;;;;;35.95;8.02;;;;;;;;;;5045899;28;20536;-55
2022/10/14 10:58:46;;;;;;;102.28;11.65;;;;;;;;;;5050878;28;20037;-55
2022/10/14 11:01:15;;;;;;;57.03;9.32;;;;;;;;;;5047809;28;20086;-55
2022/10/14 11:03:42;;;;;;;74.20;10.68;;;;;;;;;;5047739;28;20049;-56
2022/10/14 11:12:01;;;;;;;39.17;8.52;;;;;;;;;;5045988;28;20135;-56
2022/10/14 11:12:16;;;;;;;37.28;9.05;;;;;;;;;;5043844;28;20684;-55
2022/10/14 11:14:52;;;;;;;364.08;30.65;;;;;;;;;;5046260;28;20060;-55
2022/10/14 11:17:20;;;;;;;66.00;12.18;;;;;;;;;;5044430;28;20044;-56
2022/10/14 11:19:50;;;;;;;60.38;10.70;;;;;;;;;;5045384;28;20559;-55
2022/10/14 11:22:37;;;;;;;76.22;11.50;;;;;;;;;;5047014;28;20033;-55
2022/10/14 11:25:24;;;;;;;66.60;11.73;;;;;;;;;;5045951;28;20056;-54
2022/10/14 11:28:00;;;;;;;53.33;11.20;;;;;;;;;;5044444;28;20098;-56
2022/10/14 11:30:42;;;;;;;37.47;9.55;;;;;;;;;;5046811;28;20128;-56
2022/10/14 11:33:22;;;;;;;66.97;10.45;;;;;;;;;;5045632;28;20041;-56
2022/10/14 11:35:49;;;;;;;56.70;10.77;;;;;;;;;;5045880;28;20489;-57
2022/10/14 11:38:16;;;;;;;83.80;11.77;;;;;;;;;;5045292;28;20490;-56
2022/10/14 11:40:54;;;;;;;149.55;15.60;;;;;;;;;;5044187;28;20041;-56
2022/10/14 11:43:27;;;;;;;45.67;8.98;;;;;;;;;;5045712;28;20042;-56
2022/10/14 11:45:59;;;;;;;59.90;9.85;;;;;;;;;;5045341;28;20409;-56
2022/10/14 11:48:28;;;;;;;150.48;13.95;;;;;;;;;;5046873;28;20040;-56
2022/10/14 11:50:58;;;;;;;70.70;10.55;;;;;;;;;;5044977;28;20541;-56
2022/10/14 11:53:34;;;;;;;67.10;9.13;;;;;;;;;;5044916;28;20436;-57
2022/10/14 11:56:07;;;;;;;35.53;8.43;;;;;;;;;;5044736;28;20033;-56
2022/10/14 11:58:35;;;;;;;97.70;12.30;;;;;;;;;;5043584;28;20379;-54
2022/10/14 12:01:02;;;;;;;61.63;10.57;;;;;;;;;;5048414;28;20128;-55
2022/10/14 12:03:32;;;;;;;230.68;21.83;;;;;;;;;;5046572;28;20119;-58
2022/10/14 12:06:10;;;;;;;82.63;14.18;;;;;;;;;;5044706;28;20044;-56
2022/10/14 12:09:09;;;;;;;60.75;12.00;;;;;;;;;;5043223;28;20127;-56
2022/10/14 12:11:40;;;;;;;98.03;13.40;;;;;;;;;;5021677;28;20587;-56
2022/10/14 12:14:22;;;;;;;202.32;19.25;;;;;;;;;;5022263;28;20124;-56
2022/10/14 12:16:51;;;;;;;91.40;12.05;;;;;;;;;;5005860;28;20041;-56
2022/10/14 12:19:24;;;;;;;32.60;7.97;;;;;;;;;;5023438;28;20062;-56
2022/10/14 12:21:54;;;;;;;45.28;8.77;;;;;;;;;;5026880;28;20063;-56
2022/10/14 12:24:29;;;;;;;56.53;9.82;;;;;;;;;;5022796;28;20156;-56
2022/10/14 12:26:57;;;;;;;58.05;10.45;;;;;;;;;;5005223;28;20581;-56
2022/10/14 12:29:24;;;;;;;62.00;10.52;;;;;;;;;;5022153;28;20041;-56
2022/10/14 12:32:03;;;;;;;295.73;24.83;;;;;;;;;;5022056;28;20120;-56
2022/10/14 12:34:37;;;;;;;57.40;10.60;;;;;;;;;;5022174;28;20074;-56
2022/10/14 12:37:22;;;;;;;137.10;14.98;;;;;;;;;;5025408;28;20521;-57
2022/10/14 12:40:16;;;;;;;92.15;12.63;;;;;;;;;;5027411;28;20085;-55
2022/10/14 12:42:43;;;;;;;424.08;35.13;;;;;;;;;;5025803;28;20124;-56
2022/10/14 12:45:22;;;;;;;86.10;12.30;;;;;;;;;;5022040;28;20037;-56
2022/10/14 12:48:07;;;;;;;57.97;11.13;;;;;;;;;;5037105;28;20053;-56
2022/10/14 12:50:37;;;;;;;28.45;8.68;;;;;;;;;;5046781;28;20716;-56
2022/10/14 12:53:07;;;;;;;55.83;10.50;;;;;;;;;;5046349;28;20080;-57
2022/10/14 12:55:38;;;;;;;64.90;10.70;;;;;;;;;;5050994;28;20083;-57
2022/10/14 12:58:06;;;;;;;95.55;13.40;;;;;;;;;;5051368;28;20063;-57
2022/10/14 13:00:41;;;;;;;158.93;16.45;;;;;;;;;;5050030;28;20043;-56
2022/10/14 13:03:16;;;;;;;78.75;12.65;;;;;;;;;;5048379;28;20045;-57
2022/10/14 13:05:43;;;;;;;271.38;27.00;;;;;;;;;;5046553;28;20102;-57
2022/10/14 13:08:15;;;;;;;105.07;15.48;;;;;;;;;;5047425;28;20047;-56
2022/10/14 13:10:43;;;;;;;84.53;12.98;;;;;;;;;;5047567;28;20042;-56
2022/10/14 13:13:31;;;;;;;101.75;15.35;;;;;;;;;;5049855;28;20045;-57
2022/10/14 13:15:58;;;;;;;42.85;11.48;;;;;;;;;;5048521;28;20045;-57
2022/10/14 13:18:37;;;;;;;92.07;14.73;;;;;;;;;;5046944;28;20045;-56
2022/10/14 13:21:04;;;;;;;46.70;11.10;;;;;;;;;;5046894;28;20136;-56
2022/10/14 13:23:42;;;;;;;100.82;14.80;;;;;;;;;;5047352;28;20043;-57
2022/10/14 13:26:27;;;;;;;103.40;15.27;;;;;;;;;;5047386;28;20056;-56
2022/10/14 13:29:00;;;;;;;252.23;23.90;;;;;;;;;;5017051;28;20041;-57
2022/10/14 13:31:34;;;;;;;69.78;12.75;;;;;;;;;;5046140;28;20037;-55
2022/10/14 13:34:19;;;;;;;147.73;16.42;;;;;;;;;;5047703;28;20049;-56
2022/10/14 13:37:05;;;;;;;107.47;16.15;;;;;;;;;;5063909;28;20075;-55
2022/10/14 13:39:34;;;;;;;60.28;12.70;;;;;;;;;;5048219;28;20276;-57
2022/10/14 13:42:01;;;;;;;46.90;11.90;;;;;;;;;;5048648;28;20100;-56
2022/10/14 13:44:28;;;;;;;35.90;12.13;;;;;;;;;;5048570;28;20124;-57
2022/10/14 13:46:54;;;;;;;125.20;15.13;;;;;;;;;;5048404;28;20749;-56
2022/10/14 13:49:29;;;;;;;103.15;14.88;;;;;;;;;;5048872;28;20068;-56
2022/10/14 13:52:00;;;;;;;92.28;14.93;;;;;;;;;;5032711;28;20143;-57
2022/10/14 13:54:29;;;;;;;51.05;13.65;;;;;;;;;;5049027;28;20187;-56
2022/10/14 13:56:59;;;;;;;48.90;12.45;;;;;;;;;;5048135;28;20106;-56
2022/10/14 13:59:46;;;;;;;99.55;15.70;;;;;;;;;;5047955;28;20538;-55
2022/10/14 14:02:38;;;;;;;57.13;13.13;;;;;;;;;;5034733;28;20103;-54
2022/10/14 14:05:05;;;;;;;125.38;18.17;;;;;;;;;;5047260;28;20068;-56
2022/10/14 14:07:35;;;;;;;73.80;14.00;;;;;;;;;;5048922;28;20033;-56
2022/10/14 14:10:23;;;;;;;115.50;16.40;;;;;;;;;;5047266;28;20052;-56
2022/10/14 14:12:50;;;;;;;103.43;15.35;;;;;;;;;;5049755;28;20048;-56
2022/10/14 14:15:20;;;;;;;63.30;13.35;;;;;;;;;;5048136;28;20037;-56
2022/10/14 14:17:47;;;;;;;54.13;13.15;;;;;;;;;;5046025;28;20416;-56
2022/10/14 14:20:17;;;;;;;111.68;17.15;;;;;;;;;;5045076;28;20076;-56
2022/10/14 14:22:43;;;;;;;69.60;14.60;;;;;;;;;;5047280;28;20029;-56
2022/10/14 14:25:11;;;;;;;66.07;14.50;;;;;;;;;;5048718;28;20402;-55
2022/10/14 14:28:02;;;;;;;80.32;16.35;;;;;;;;;;5047700;28;20528;-57
2022/10/14 14:30:32;;;;;;;143.30;19.77;;;;;;;;;;5050838;28;20424;-55
2022/10/14 14:33:12;;;;;;;49.78;13.50;;;;;;;;;;5046873;28;20041;-55
2022/10/14 14:35:40;;;;;;;71.18;14.75;;;;;;;;;;5046036;28;20045;-56
2022/10/14 14:38:22;;;;;;;121.28;17.77;;;;;;;;;;5046193;28;20041;-56
2022/10/14 14:40:58;;;;;;;89.53;16.15;;;;;;;;;;5044721;28;20045;-56